Trent, South Dakota
Current Conditions -  °F | °C
As of 3:34 PM on Sunday 21 Dec 2014 (Local Time) from KPQN Reporting Station
Drizzle Drizzle  
Wind Chill: 26°   Ceiling: 100
Heat Index: 36°   Visibility: 0.25mi
Dew Point: 36°   Wind: 16mph
Humidity: 100%   Direction: 180°S
Pressure: 29.58"   Gusts: NA
Location:  43.91°N, 96.65°W
Report Text: KPQN 212134Z AUTO 18014KT 1/4SM -DZ OVC001 02/02 A2958 RMK AO2
Loading
Personal Weather Stations






























Interactive Weather Map New forecast layout! Learn more

10-Day Weather Forecast

Advertisements
Track Severe Weather on mobile